Airfield :
LOGIN :

Register | Disclaimer

   EN    FR    IT 

 










Legend :    VFR   Marginal VFR   IFR   Intensive IFR   Very Intensive IFR
Visi :
Ceiling :
>= 8 km
>= 3000ft
5 to 8 km
1000 to 3000 ft
1500m to 5 km
500 to 1000 ft
800 to 1500m
200 to 500 ft
< 800m
< 200 ft
Symbols :   Thunderstorms  Fog  Heavy snow  Heavy precipitations  Wind > 20 kt
SIGMETs :     Misc.  Thunderstorms  Icing  Turbulence  Mountain Waves  Volcanic Ashes






- Airport Elevation : 463 ft
- IATA code : SZY
- AIRPORT CLOSED.


EPSY - Szczytno

CURRENT METAR :
  • 282330Z 01004KT 350V050 CAVOK 19/09 Q1015

EXPIRED METARs :
  • 282300Z VRB01KT CAVOK 19/10 Q1015
  • 282230Z VRB03KT CAVOK 20/09 Q1015
  • 282200Z VRB02KT CAVOK 21/08 Q1016
  • 282130Z 15004KT 120V190 CAVOK 21/08 Q1016
  • 282100Z VRB02KT CAVOK 21/08 Q1016
  • 282030Z 13004KT 090V160 CAVOK 22/08 Q1015
  • 282000Z 14004KT CAVOK 22/08 Q1015
  • 281930Z 13003KT CAVOK 21/08 Q1015
  • 281900Z 12003KT CAVOK 23/07 Q1015

TAF TAF EPSY
Valid from the 28 at 21:00 until the 29 at 06:00 UTC


282030Z 2821/2906 VRB03KT CAVOK



MET'MAP, your aeronautical weather chart ! - Copyright ORBIFLY December 2007 - Disclaimer

ORBIFLY MET'MAP TEAM :

Programming & Development : Alexandra Zaïnal
Original concept : Baudouin d'Aumeries
Technical & hardware support : Manuel Goepfert
Assistance : Marc-Olivier Méhu




SOURCES & CREDITS :

   NOAA